createdAt,value
2023-04-20T00:01:04.995Z,60.69
2023-04-20T00:03:33.516Z,60.52
2023-04-20T00:06:02.115Z,58.23
2023-04-20T00:08:30.149Z,57.72
2023-04-20T00:10:57.845Z,59.85
2023-04-20T00:13:26.631Z,63.98
2023-04-20T00:15:54.372Z,65.61
2023-04-20T00:18:22.196Z,64.28
2023-04-20T00:20:49.917Z,62.71
2023-04-20T00:23:17.785Z,61.84
2023-04-20T00:25:45.544Z,61.55
2023-04-20T00:28:13.300Z,61.02
2023-04-20T00:30:41.361Z,60.30
2023-04-20T00:33:09.168Z,58.43
2023-04-20T00:35:37.052Z,57.75
2023-04-20T00:38:04.854Z,59.20
2023-04-20T00:40:33.622Z,62.95
2023-04-20T00:43:14.862Z,65.63
2023-04-20T00:45:42.826Z,64.34
2023-04-20T00:48:10.904Z,62.92
2023-04-20T00:50:40.850Z,61.23
2023-04-20T00:53:09.252Z,58.17
2023-04-20T00:55:38.671Z,57.24
2023-04-20T00:58:07.024Z,58.40
2023-04-20T01:00:35.211Z,62.43
2023-04-20T01:03:03.248Z,64.72
2023-04-20T01:05:31.930Z,64.07
2023-04-20T01:07:59.755Z,62.49
2023-04-20T01:10:27.595Z,60.72
2023-04-20T01:12:55.420Z,58.35
2023-04-20T01:15:23.354Z,56.98
2023-04-20T01:17:52.545Z,58.92
2023-04-20T01:20:20.690Z,60.48
2023-04-20T01:22:51.511Z,64.69
2023-04-20T01:25:20.320Z,65.54
2023-04-20T01:27:48.823Z,63.97
2023-04-20T01:30:17.431Z,61.67
2023-04-20T01:32:45.980Z,60.72
2023-04-20T01:35:15.957Z,58.74
2023-04-20T01:37:43.790Z,58.15
2023-04-20T01:40:13.960Z,59.67
2023-04-20T01:42:41.900Z,62.37
2023-04-20T01:45:10.162Z,64.94
2023-04-20T01:47:38.047Z,63.45
2023-04-20T01:50:06.494Z,61.83
2023-04-20T01:52:34.335Z,60.84
2023-04-20T01:55:02.112Z,59.90
2023-04-20T01:57:29.939Z,58.04
2023-04-20T01:59:57.669Z,58.45
2023-04-20T02:02:25.653Z,59.75
2023-04-20T02:04:53.966Z,64.62
2023-04-20T02:07:21.809Z,65.94
2023-04-20T02:09:49.586Z,64.55
2023-04-20T02:12:17.315Z,63.00
2023-04-20T02:14:45.166Z,61.57
2023-04-20T02:17:14.202Z,61.01
2023-04-20T02:19:42.048Z,60.53
2023-04-20T02:22:09.897Z,58.67
2023-04-20T02:24:37.657Z,58.74
2023-04-20T02:27:05.751Z,61.13
2023-04-20T02:29:33.495Z,64.66
2023-04-20T02:32:01.743Z,66.12
2023-04-20T02:34:29.573Z,64.71
2023-04-20T02:36:57.294Z,63.15
2023-04-20T02:39:25.133Z,62.39
2023-04-20T02:41:52.866Z,61.70
2023-04-20T02:44:20.626Z,61.17
2023-04-20T02:46:48.437Z,60.37
2023-04-20T02:49:16.935Z,60.21
2023-04-20T02:51:44.958Z,60.02
2023-04-20T02:54:12.696Z,59.87
2023-04-20T02:56:40.633Z,58.96
2023-04-20T02:59:08.447Z,59.68
2023-04-20T03:01:36.204Z,63.10
2023-04-20T03:04:04.785Z,64.95
2023-04-20T03:06:33.525Z,63.86
2023-04-20T03:09:01.596Z,62.79
2023-04-20T03:11:29.365Z,61.89
2023-04-20T03:13:57.112Z,61.21
2023-04-20T03:16:24.916Z,60.91
2023-04-20T03:18:52.865Z,60.65
2023-04-20T03:21:20.833Z,60.22
2023-04-20T03:23:49.490Z,60.29
2023-04-20T03:26:18.024Z,60.09
2023-04-20T03:28:45.907Z,59.88
2023-04-20T03:31:13.718Z,59.89
2023-04-20T03:33:41.543Z,59.77
2023-04-20T03:36:09.866Z,58.41
2023-04-20T03:38:37.630Z,58.54
2023-04-20T03:41:06.048Z,61.08
2023-04-20T03:43:34.560Z,64.50
2023-04-20T03:46:02.336Z,66.18
2023-04-20T03:48:30.151Z,64.39
2023-04-20T03:50:59.056Z,62.91
2023-04-20T03:53:29.218Z,61.30
2023-04-20T03:55:57.002Z,61.01
2023-04-20T03:58:24.741Z,60.05
2023-04-20T04:00:52.494Z,57.98
2023-04-20T04:03:20.753Z,58.21
2023-04-20T04:05:48.637Z,60.22
2023-04-20T04:08:16.273Z,63.61
2023-04-20T04:10:43.991Z,65.26
2023-04-20T04:13:11.732Z,63.82
2023-04-20T04:15:39.442Z,62.12
2023-04-20T04:18:07.174Z,60.20
2023-04-20T04:20:34.975Z,57.35
2023-04-20T04:23:02.997Z,57.32
2023-04-20T04:25:30.759Z,58.51
2023-04-20T04:27:58.830Z,59.92
2023-04-20T04:30:27.466Z,60.92
2023-04-20T04:32:55.677Z,62.66
2023-04-20T04:35:24.054Z,62.10
2023-04-20T04:37:52.923Z,57.86
2023-04-20T04:40:20.892Z,56.10
2023-04-20T04:42:48.742Z,56.74
2023-04-20T04:45:16.846Z,57.96
2023-04-20T04:47:44.801Z,58.62
2023-04-20T04:50:13.205Z,59.05
2023-04-20T04:52:40.975Z,59.12
2023-04-20T04:55:09.973Z,59.00
2023-04-20T04:57:38.794Z,58.64
2023-04-20T05:00:09.803Z,58.45
2023-04-20T05:02:37.849Z,58.31
2023-04-20T05:05:09.013Z,57.90
2023-04-20T05:07:38.665Z,56.72
2023-04-20T05:10:08.290Z,56.66
2023-04-20T05:12:36.274Z,55.87
2023-04-20T05:15:04.977Z,54.70
2023-04-20T05:17:32.928Z,54.16
2023-04-20T05:20:04.254Z,54.06
2023-04-20T05:22:32.076Z,53.46
2023-04-20T05:24:59.757Z,52.17
2023-04-20T05:27:27.550Z,50.76
2023-04-20T05:29:55.439Z,51.26
2023-04-20T05:32:23.316Z,53.22
2023-04-20T05:34:51.125Z,55.19
2023-04-20T05:37:18.976Z,57.00
2023-04-20T05:39:46.734Z,58.40
2023-04-20T05:42:14.730Z,59.46
2023-04-20T05:44:43.974Z,60.27
2023-04-20T05:47:12.236Z,61.14
2023-04-20T05:49:40.753Z,63.45
2023-04-20T05:52:08.576Z,64.14
2023-04-20T05:54:36.320Z,60.63
2023-04-20T05:57:05.814Z,57.06
2023-04-20T05:59:33.682Z,56.19
2023-04-20T06:02:01.909Z,56.51
2023-04-20T06:04:31.092Z,57.69
2023-04-20T06:07:00.291Z,58.74
2023-04-20T06:09:28.110Z,59.41
2023-04-20T06:11:55.993Z,60.31
2023-04-20T06:14:23.705Z,60.51
2023-04-20T06:16:51.472Z,60.98
2023-04-20T06:19:19.335Z,61.25
2023-04-20T06:21:47.268Z,63.86
2023-04-20T06:24:15.071Z,63.03
2023-04-20T06:26:42.892Z,59.00
2023-04-20T06:29:10.661Z,56.33
2023-04-20T06:31:38.464Z,56.74
2023-04-20T06:34:06.265Z,58.19
2023-04-20T06:36:34.030Z,58.75
2023-04-20T06:39:01.853Z,59.57
2023-04-20T06:41:29.701Z,60.40
2023-04-20T06:43:57.531Z,60.78
2023-04-20T06:46:25.484Z,60.84
2023-04-20T06:48:53.252Z,61.36
2023-04-20T06:51:21.110Z,61.33
2023-04-20T06:53:48.915Z,61.57
2023-04-20T06:56:16.680Z,61.70
2023-04-20T06:58:44.410Z,61.93
2023-04-20T07:01:12.179Z,61.63
2023-04-20T07:03:40.274Z,61.75
2023-04-20T07:06:11.120Z,61.82
2023-04-20T07:08:43.156Z,61.70
2023-04-20T07:11:11.124Z,62.95
2023-04-20T07:13:38.897Z,62.14
2023-04-20T07:16:07.259Z,57.92
2023-04-20T07:18:35.632Z,56.16
2023-04-20T07:21:03.870Z,57.06
2023-04-20T07:23:31.672Z,57.52
2023-04-20T07:25:59.454Z,57.95
2023-04-20T07:28:27.327Z,58.06
2023-04-20T07:30:55.048Z,58.29
2023-04-20T07:33:24.258Z,58.69
2023-04-20T07:35:52.415Z,58.89
2023-04-20T07:38:20.273Z,59.08
2023-04-20T07:40:48.189Z,59.38
2023-04-20T07:43:16.004Z,59.62
2023-04-20T07:45:44.147Z,60.14
2023-04-20T07:48:12.654Z,59.99
2023-04-20T07:50:40.711Z,60.12
2023-04-20T07:53:08.534Z,60.44
2023-04-20T07:55:36.965Z,60.72
2023-04-20T07:58:04.764Z,60.39
2023-04-20T08:00:32.528Z,60.50
2023-04-20T08:03:00.602Z,60.53
2023-04-20T08:05:28.789Z,60.48
2023-04-20T08:07:57.003Z,60.36
2023-04-20T08:10:25.136Z,60.54
2023-04-20T08:12:53.706Z,60.14
2023-04-20T08:15:21.601Z,59.58
2023-04-20T08:17:49.461Z,58.67
2023-04-20T08:20:17.226Z,59.39
2023-04-20T08:22:45.161Z,59.29
2023-04-20T08:25:12.931Z,59.15
2023-04-20T08:27:40.865Z,58.95
2023-04-20T08:30:11.004Z,58.90
2023-04-20T08:32:39.022Z,59.19
2023-04-20T08:35:08.704Z,58.77
2023-04-20T08:37:37.739Z,58.25
2023-04-20T08:40:06.467Z,58.59
2023-04-20T08:42:34.400Z,58.30
2023-04-20T08:45:02.233Z,58.24
2023-04-20T08:47:33.175Z,58.14
2023-04-20T08:50:04.513Z,58.50
2023-04-20T08:52:33.286Z,58.17
2023-04-20T08:55:01.213Z,58.25
2023-04-20T08:57:29.050Z,57.68
2023-04-20T08:59:58.171Z,57.17
2023-04-20T09:02:26.442Z,56.86
2023-04-20T09:05:04.798Z,57.30
2023-04-20T09:07:32.837Z,56.62
2023-04-20T09:10:01.346Z,56.12
2023-04-20T09:12:29.278Z,56.83
2023-04-20T09:14:57.216Z,57.03
2023-04-20T09:17:37.596Z,57.45
2023-04-20T09:20:07.092Z,58.05
2023-04-20T09:22:37.814Z,58.71
2023-04-20T09:25:17.157Z,58.08
2023-04-20T09:27:57.456Z,57.17
2023-04-20T09:30:25.940Z,57.06
2023-04-20T09:33:04.695Z,56.38
2023-04-20T09:35:32.656Z,56.51
2023-04-20T09:38:00.702Z,55.91
2023-04-20T09:40:28.995Z,55.99
2023-04-20T09:43:03.198Z,55.95
2023-04-20T09:45:31.908Z,56.82
2023-04-20T09:47:59.858Z,57.10
2023-04-20T09:50:38.265Z,56.81
2023-04-20T09:53:18.041Z,57.20
2023-04-20T09:55:51.342Z,57.61
2023-04-20T09:58:23.864Z,57.50
2023-04-20T10:00:51.822Z,57.58
2023-04-20T10:03:21.941Z,57.44
2023-04-20T10:05:51.682Z,57.50
2023-04-20T10:08:20.922Z,57.58
2023-04-20T10:10:51.571Z,57.37
2023-04-20T10:13:21.890Z,57.27
2023-04-20T10:15:49.835Z,56.57
2023-04-20T10:18:23.924Z,57.15
2023-04-20T10:21:06.216Z,56.60
2023-04-20T10:23:34.001Z,55.92
2023-04-20T10:26:02.871Z,55.82
2023-04-20T10:28:44.955Z,55.92
2023-04-20T10:31:15.819Z,56.35
2023-04-20T10:33:56.198Z,56.41
2023-04-20T10:36:29.454Z,56.73
2023-04-20T10:38:58.859Z,56.61
2023-04-20T10:41:27.259Z,56.29
2023-04-20T10:43:55.084Z,56.03
2023-04-20T10:46:25.198Z,55.70
2023-04-20T10:49:01.341Z,55.53
2023-04-20T10:51:30.010Z,54.35
2023-04-20T10:54:11.588Z,54.61
2023-04-20T10:56:48.701Z,55.23
2023-04-20T10:59:20.032Z,54.78
2023-04-20T11:01:49.697Z,54.68
2023-04-20T11:04:19.168Z,54.88
2023-04-20T11:06:50.502Z,54.56
2023-04-20T11:09:26.273Z,54.59
2023-04-20T11:12:21.640Z,54.79
2023-04-20T11:14:56.184Z,52.54
2023-04-20T11:17:38.236Z,53.00
2023-04-20T11:20:15.468Z,53.42
2023-04-20T11:22:44.864Z,53.24
2023-04-20T11:25:13.142Z,52.39
2023-04-20T11:27:42.334Z,52.09
2023-04-20T11:30:11.096Z,50.89
2023-04-20T11:32:42.606Z,51.38
2023-04-20T11:35:12.811Z,51.35
2023-04-20T11:37:51.628Z,52.34
2023-04-20T11:40:20.402Z,52.89
2023-04-20T11:42:52.531Z,52.49
2023-04-20T11:45:20.352Z,52.97
2023-04-20T11:47:49.531Z,52.94
2023-04-20T11:50:19.844Z,52.83
2023-04-20T11:52:49.907Z,52.82
2023-04-20T11:55:18.294Z,52.98
2023-04-20T11:57:46.044Z,52.82
2023-04-20T12:00:15.282Z,52.27
2023-04-20T12:02:43.312Z,51.94
2023-04-20T12:05:11.965Z,52.21
2023-04-20T12:07:40.076Z,52.78
2023-04-20T12:10:09.090Z,52.69
2023-04-20T12:12:37.336Z,52.64
2023-04-20T12:15:06.802Z,52.39
2023-04-20T12:17:34.712Z,52.07
2023-04-20T12:20:02.923Z,52.31
2023-04-20T12:22:30.750Z,52.07
2023-04-20T12:24:58.644Z,52.17
2023-04-20T12:27:26.732Z,52.92
2023-04-20T12:29:54.500Z,52.62
2023-04-20T12:32:22.333Z,52.63
2023-04-20T12:34:50.195Z,52.28
2023-04-20T12:37:18.617Z,52.78
2023-04-20T12:39:46.470Z,52.90
2023-04-20T12:42:14.241Z,52.27
2023-04-20T12:44:42.018Z,52.32
2023-04-20T12:47:09.950Z,52.85
2023-04-20T12:49:37.797Z,52.32
2023-04-20T12:52:07.929Z,51.72
2023-04-20T12:54:35.972Z,51.77
2023-04-20T12:57:03.972Z,50.85
2023-04-20T12:59:31.718Z,51.09
2023-04-20T13:01:59.566Z,51.70
2023-04-20T13:04:27.699Z,50.94
2023-04-20T13:06:55.880Z,51.10
2023-04-20T13:09:27.143Z,51.49
2023-04-20T13:11:55.044Z,51.96
2023-04-20T13:14:22.908Z,51.95
2023-04-20T13:16:52.932Z,51.51
2023-04-20T13:19:22.638Z,51.49
2023-04-20T13:21:50.570Z,51.35
2023-04-20T13:24:18.616Z,51.40
2023-04-20T13:26:47.788Z,50.91
2023-04-20T13:29:15.654Z,51.15
2023-04-20T13:31:43.744Z,51.14
2023-04-20T13:34:11.530Z,51.57
2023-04-20T13:36:39.318Z,50.57
2023-04-20T13:39:09.796Z,50.46
2023-04-20T13:41:37.897Z,50.37
2023-04-20T13:44:07.930Z,50.32
2023-04-20T13:46:36.922Z,50.15
2023-04-20T13:49:04.618Z,50.75
2023-04-20T13:51:32.794Z,50.37
2023-04-20T13:54:00.642Z,50.37
2023-04-20T13:56:28.448Z,50.86
2023-04-20T13:58:56.498Z,50.65
2023-04-20T14:01:25.861Z,50.74
2023-04-20T14:03:53.982Z,50.74
2023-04-20T14:06:22.088Z,50.92
2023-04-20T14:08:49.937Z,51.15
2023-04-20T14:11:17.775Z,51.17
2023-04-20T14:13:47.877Z,51.24
2023-04-20T14:16:15.854Z,50.57
2023-04-20T14:18:45.499Z,50.87
2023-04-20T14:21:14.124Z,50.55
2023-04-20T14:23:42.012Z,50.81
2023-04-20T14:26:09.817Z,50.64
2023-04-20T14:28:37.617Z,50.36
2023-04-20T14:31:06.290Z,50.52
2023-04-20T14:33:34.249Z,50.33
2023-04-20T14:36:02.047Z,50.24
2023-04-20T14:38:29.865Z,50.18
2023-04-20T14:40:57.678Z,50.17
2023-04-20T14:43:25.499Z,50.09
2023-04-20T14:45:55.283Z,50.45
2023-04-20T14:48:25.230Z,50.18
2023-04-20T14:50:55.921Z,50.21
2023-04-20T14:53:24.075Z,50.39
2023-04-20T14:55:52.001Z,50.67
2023-04-20T14:58:20.699Z,50.51
2023-04-20T15:00:51.359Z,50.65
2023-04-20T15:03:19.221Z,50.70
2023-04-20T15:05:47.442Z,50.73
2023-04-20T15:08:15.378Z,50.93
2023-04-20T15:10:43.194Z,51.07
2023-04-20T15:13:11.419Z,51.01
2023-04-20T15:15:48.287Z,50.92
2023-04-20T15:18:18.292Z,51.16
2023-04-20T15:20:46.192Z,51.41
2023-04-20T15:23:13.963Z,51.23
2023-04-20T15:25:41.715Z,51.13
2023-04-20T15:28:09.549Z,51.43
2023-04-20T15:30:37.441Z,51.43
2023-04-20T15:33:05.908Z,51.49
2023-04-20T15:35:35.184Z,51.66
2023-04-20T15:38:03.782Z,51.66
2023-04-20T15:40:31.591Z,51.74
2023-04-20T15:42:59.385Z,51.80
2023-04-20T15:45:27.173Z,51.36
2023-04-20T15:47:56.159Z,51.54
2023-04-20T15:50:24.034Z,51.61
2023-04-20T15:52:54.846Z,51.76
2023-04-20T15:55:22.988Z,51.83
2023-04-20T15:57:57.026Z,51.21
2023-04-20T16:00:25.060Z,50.94
2023-04-20T16:02:54.362Z,51.12
2023-04-20T16:05:23.195Z,51.33
2023-04-20T16:07:51.005Z,50.89
2023-04-20T16:10:18.924Z,50.84
2023-04-20T16:12:46.749Z,51.04
2023-04-20T16:15:14.801Z,51.16
2023-04-20T16:17:42.615Z,51.06
2023-04-20T16:20:11.408Z,50.94
2023-04-20T16:22:39.882Z,50.83
2023-04-20T16:25:09.413Z,50.99
2023-04-20T16:27:37.481Z,51.26
2023-04-20T16:30:07.029Z,51.47
2023-04-20T16:32:34.894Z,51.66
2023-04-20T16:35:02.871Z,51.78
2023-04-20T16:37:33.755Z,51.48
2023-04-20T16:40:02.424Z,51.31
2023-04-20T16:42:30.214Z,50.83
2023-04-20T16:44:57.930Z,50.94
2023-04-20T16:47:26.064Z,51.05
2023-04-20T16:49:53.919Z,50.46
2023-04-20T16:52:21.890Z,50.53
2023-04-20T16:54:49.689Z,50.51
2023-04-20T16:57:17.726Z,50.36
2023-04-20T16:59:46.991Z,49.90
2023-04-20T17:02:14.897Z,50.03
2023-04-20T17:04:43.085Z,49.64
2023-04-20T17:07:13.567Z,49.59
2023-04-20T17:09:41.431Z,49.37
2023-04-20T17:12:09.344Z,49.74
2023-04-20T17:14:37.433Z,49.82
2023-04-20T17:17:05.558Z,49.74
2023-04-20T17:19:34.634Z,50.03
2023-04-20T17:22:03.899Z,50.37
2023-04-20T17:24:31.829Z,50.78
2023-04-20T17:26:59.613Z,51.17
2023-04-20T17:29:28.931Z,51.60
2023-04-20T17:31:59.883Z,52.10
2023-04-20T17:34:28.100Z,52.46
2023-04-20T17:36:56.115Z,52.53
2023-04-20T17:39:27.308Z,52.79
2023-04-20T17:41:55.558Z,53.05
2023-04-20T17:44:23.572Z,53.29
2023-04-20T17:46:51.680Z,53.50
2023-04-20T17:49:19.714Z,53.63
2023-04-20T17:51:48.374Z,53.73
2023-04-20T17:54:16.785Z,53.99
2023-04-20T17:56:45.166Z,54.19
2023-04-20T17:59:12.986Z,54.36
2023-04-20T18:01:40.980Z,54.49
2023-04-20T18:04:09.306Z,54.36
2023-04-20T18:06:37.347Z,54.71
2023-04-20T18:09:05.305Z,54.82
2023-04-20T18:11:33.027Z,54.82
2023-04-20T18:14:00.987Z,54.97
2023-04-20T18:16:28.781Z,54.93
2023-04-20T18:18:56.540Z,54.89
2023-04-20T18:21:24.438Z,54.97
2023-04-20T18:23:52.268Z,54.89
2023-04-20T18:26:20.652Z,54.86
2023-04-20T18:28:48.439Z,54.80
2023-04-20T18:31:16.335Z,54.70
2023-04-20T18:33:44.278Z,54.91
2023-04-20T18:36:16.922Z,54.90
2023-04-20T18:38:44.926Z,55.00
2023-04-20T18:41:13.383Z,54.88
2023-04-20T18:43:41.648Z,54.85
2023-04-20T18:46:09.442Z,54.52
2023-04-20T18:48:37.395Z,54.55
2023-04-20T18:51:05.490Z,54.42
2023-04-20T18:53:34.627Z,54.50
2023-04-20T18:56:02.437Z,54.43
2023-04-20T18:58:31.511Z,54.49
2023-04-20T19:01:01.512Z,54.17
2023-04-20T19:03:29.652Z,54.08
2023-04-20T19:05:58.094Z,54.04
2023-04-20T19:08:25.885Z,54.01
2023-04-20T19:10:57.435Z,53.94
2023-04-20T19:13:25.395Z,53.98
2023-04-20T19:15:59.363Z,53.56
2023-04-20T19:18:27.458Z,53.55
2023-04-20T19:20:55.575Z,53.39
2023-04-20T19:23:23.294Z,53.38
2023-04-20T19:25:51.397Z,53.36
2023-04-20T19:28:24.037Z,53.51
2023-04-20T19:30:53.060Z,53.63
2023-04-20T19:33:21.225Z,53.77
2023-04-20T19:35:51.125Z,53.89
2023-04-20T19:38:20.901Z,54.07
2023-04-20T19:40:50.101Z,54.25
2023-04-20T19:43:18.224Z,54.40
2023-04-20T19:45:46.106Z,54.61
2023-04-20T19:48:14.368Z,54.86
2023-04-20T19:50:42.306Z,55.05
2023-04-20T19:53:10.230Z,55.25
2023-04-20T19:55:38.104Z,55.71
2023-04-20T19:58:09.380Z,55.89
2023-04-20T20:00:39.015Z,55.95
2023-04-20T20:03:10.628Z,56.20
2023-04-20T20:05:38.912Z,56.19
2023-04-20T20:08:06.855Z,56.33
2023-04-20T20:10:34.996Z,56.41
2023-04-20T20:13:03.281Z,56.57
2023-04-20T20:15:33.055Z,56.74
2023-04-20T20:18:01.150Z,56.61
2023-04-20T20:20:30.726Z,56.78
2023-04-20T20:23:00.227Z,56.87
2023-04-20T20:25:28.372Z,57.04
2023-04-20T20:27:56.404Z,57.14
2023-04-20T20:30:25.067Z,57.07
2023-04-20T20:32:53.502Z,57.03
2023-04-20T20:35:22.700Z,57.02
2023-04-20T20:37:51.195Z,56.94
2023-04-20T20:40:19.744Z,57.17
2023-04-20T20:42:48.040Z,57.03
2023-04-20T20:45:19.489Z,56.97
2023-04-20T20:47:48.008Z,57.01
2023-04-20T20:50:27.936Z,57.00
2023-04-20T20:52:56.573Z,57.00
2023-04-20T20:55:24.453Z,57.06
2023-04-20T20:57:52.475Z,57.17
2023-04-20T21:00:20.424Z,57.20
2023-04-20T21:02:48.415Z,57.29
2023-04-20T21:05:16.548Z,57.41
2023-04-20T21:07:44.861Z,57.42
2023-04-20T21:10:12.784Z,57.58
2023-04-20T21:12:40.573Z,57.76
2023-04-20T21:15:10.364Z,57.92
2023-04-20T21:17:38.275Z,57.99
2023-04-20T21:20:09.210Z,58.21
2023-04-20T21:22:37.596Z,58.40
2023-04-20T21:25:08.752Z,58.52
2023-04-20T21:27:37.123Z,58.67
2023-04-20T21:30:06.211Z,58.80
2023-04-20T21:32:33.989Z,59.01
2023-04-20T21:35:01.842Z,59.32
2023-04-20T21:37:29.641Z,59.36
2023-04-20T21:39:57.501Z,59.66
2023-04-20T21:42:25.316Z,59.77
2023-04-20T21:44:53.087Z,59.85
2023-04-20T21:47:21.580Z,60.08
2023-04-20T21:49:49.415Z,60.15
2023-04-20T21:52:17.299Z,60.37
2023-04-20T21:54:45.039Z,60.62
2023-04-20T21:57:12.864Z,60.69
2023-04-20T21:59:40.748Z,60.68
2023-04-20T22:02:08.642Z,61.07
2023-04-20T22:04:36.641Z,60.93
2023-04-20T22:07:04.531Z,61.15
2023-04-20T22:09:32.418Z,61.17
2023-04-20T22:12:02.198Z,61.35
2023-04-20T22:14:30.163Z,61.39
2023-04-20T22:16:58.053Z,61.57
2023-04-20T22:19:26.033Z,64.84
2023-04-20T22:21:53.977Z,67.54
2023-04-20T22:24:21.765Z,65.83
2023-04-20T22:26:49.606Z,60.58
2023-04-20T22:29:17.654Z,56.27
2023-04-20T22:31:45.780Z,55.51
2023-04-20T22:34:13.810Z,55.95
2023-04-20T22:36:41.761Z,56.59
2023-04-20T22:39:09.796Z,57.05
2023-04-20T22:41:37.621Z,57.47
2023-04-20T22:44:05.960Z,57.67
2023-04-20T22:46:33.886Z,58.34
2023-04-20T22:49:01.771Z,58.73
2023-04-20T22:51:29.585Z,59.07
2023-04-20T22:53:57.699Z,59.26
2023-04-20T22:56:25.774Z,59.68
2023-04-20T22:58:53.492Z,60.19
2023-04-20T23:01:21.336Z,60.26
2023-04-20T23:03:49.224Z,60.27
2023-04-20T23:06:18.257Z,60.29
2023-04-20T23:08:46.944Z,60.45
2023-04-20T23:11:16.563Z,60.33
2023-04-20T23:13:46.886Z,60.55
2023-04-20T23:16:14.825Z,60.54
2023-04-20T23:18:42.626Z,60.62
2023-04-20T23:21:10.443Z,60.63
2023-04-20T23:23:38.327Z,60.74
2023-04-20T23:26:06.203Z,60.64
2023-04-20T23:28:33.936Z,60.64
2023-04-20T23:31:01.804Z,60.53
2023-04-20T23:33:29.525Z,60.59
2023-04-20T23:36:00.741Z,60.61
2023-04-20T23:38:28.575Z,60.78
2023-04-20T23:40:56.309Z,60.84
2023-04-20T23:43:24.057Z,60.90
2023-04-20T23:45:51.905Z,60.95
2023-04-20T23:48:19.704Z,61.07
2023-04-20T23:50:49.148Z,61.06
2023-04-20T23:53:17.030Z,61.29
2023-04-20T23:55:51.818Z,61.25
2023-04-20T23:58:19.616Z,61.33
